createdAt,value
2018-03-06T00:00:57.989Z,1.90
2018-03-06T00:01:58.221Z,1.80
2018-03-06T00:02:58.454Z,1.80
2018-03-06T00:03:58.690Z,1.80
2018-03-06T00:04:58.922Z,1.80
2018-03-06T00:05:59.149Z,1.90
2018-03-06T00:06:59.380Z,1.70
2018-03-06T00:07:59.615Z,1.80
2018-03-06T00:08:59.849Z,1.80
2018-03-06T00:10:00.081Z,1.90
2018-03-06T00:11:00.309Z,1.80
2018-03-06T00:12:00.540Z,1.90
2018-03-06T00:13:00.772Z,1.90
2018-03-06T00:14:01.048Z,1.70
2018-03-06T00:15:01.230Z,1.80
2018-03-06T00:16:01.460Z,1.70
2018-03-06T00:17:01.685Z,1.90
2018-03-06T00:18:01.919Z,1.80
2018-03-06T00:19:02.154Z,1.90
2018-03-06T00:20:02.384Z,2.00
2018-03-06T00:21:02.664Z,2.00
2018-03-06T00:22:02.843Z,2.00
2018-03-06T00:23:03.072Z,1.90
2018-03-06T00:24:03.302Z,1.70
2018-03-06T00:25:03.532Z,1.80
2018-03-06T00:26:03.762Z,1.90
2018-03-06T00:27:03.993Z,1.90
2018-03-06T00:28:04.217Z,2.00
2018-03-06T00:29:04.447Z,1.80
2018-03-06T00:30:04.674Z,1.70
2018-03-06T00:31:04.917Z,2.00
2018-03-06T00:32:05.142Z,2.00
2018-03-06T00:33:05.429Z,2.00
2018-03-06T00:34:05.601Z,1.90
2018-03-06T00:35:05.832Z,1.90
2018-03-06T00:36:06.063Z,2.00
2018-03-06T00:37:06.293Z,1.90
2018-03-06T00:38:06.524Z,1.80
2018-03-06T00:39:06.750Z,2.00
2018-03-06T00:40:06.984Z,1.90
2018-03-06T00:41:07.215Z,1.80
2018-03-06T00:42:07.450Z,2.00
2018-03-06T00:43:07.681Z,2.10
2018-03-06T00:44:07.914Z,2.00
2018-03-06T00:45:08.137Z,1.90
2018-03-06T00:46:08.369Z,1.70
2018-03-06T00:47:08.599Z,1.70
2018-03-06T00:48:08.829Z,1.70
2018-03-06T00:49:09.059Z,2.00
2018-03-06T00:50:09.285Z,1.90
2018-03-06T00:51:09.517Z,2.00
2018-03-06T00:52:09.749Z,2.00
2018-03-06T00:53:09.984Z,1.90
2018-03-06T00:54:10.214Z,2.00
2018-03-06T00:55:10.443Z,2.20
2018-03-06T00:56:10.675Z,1.80
2018-03-06T00:57:10.906Z,1.90
2018-03-06T00:58:11.149Z,1.80
2018-03-06T00:59:11.376Z,1.80
2018-03-06T01:00:11.605Z,2.10
2018-03-06T01:01:11.832Z,1.90
2018-03-06T01:02:12.063Z,1.90
2018-03-06T01:03:12.303Z,2.10
2018-03-06T01:04:12.534Z,2.00
2018-03-06T01:05:12.762Z,1.90
2018-03-06T01:06:12.996Z,1.90
2018-03-06T01:07:13.226Z,2.00
2018-03-06T01:08:13.467Z,1.80
2018-03-06T01:09:13.697Z,1.90
2018-03-06T01:10:13.923Z,2.00
2018-03-06T01:11:14.157Z,1.90
2018-03-06T01:12:14.387Z,1.90
2018-03-06T01:13:14.624Z,2.10
2018-03-06T01:14:14.854Z,2.10
2018-03-06T01:15:15.083Z,1.80
2018-03-06T01:16:15.315Z,1.90
2018-03-06T01:17:15.546Z,2.20
2018-03-06T01:18:15.785Z,2.00
2018-03-06T01:19:16.015Z,1.80
2018-03-06T01:20:16.247Z,1.90
2018-03-06T01:21:16.475Z,2.00
2018-03-06T01:22:16.705Z,2.00
2018-03-06T01:23:16.946Z,2.30
2018-03-06T01:24:17.175Z,1.90
2018-03-06T01:25:17.407Z,1.80
2018-03-06T01:26:17.631Z,2.00
2018-03-06T01:27:17.862Z,2.00
2018-03-06T01:28:18.094Z,2.00
2018-03-06T01:29:18.324Z,2.10
2018-03-06T01:30:18.554Z,2.00
2018-03-06T01:31:18.781Z,2.00
2018-03-06T01:32:19.017Z,2.10
2018-03-06T01:33:19.247Z,1.90
2018-03-06T01:34:19.479Z,2.10
2018-03-06T01:35:19.710Z,2.20
2018-03-06T01:36:19.937Z,2.00
2018-03-06T01:37:20.171Z,2.10
2018-03-06T01:38:20.402Z,2.00
2018-03-06T01:39:20.637Z,1.90
2018-03-06T01:40:20.871Z,2.00
2018-03-06T01:41:21.101Z,2.00
2018-03-06T01:42:21.315Z,1.90
2018-03-06T01:43:21.553Z,1.90
2018-03-06T01:44:21.785Z,1.90
2018-03-06T01:45:22.016Z,2.00
2018-03-06T01:46:22.243Z,2.00
2018-03-06T01:47:22.472Z,1.90
2018-03-06T01:48:22.707Z,1.80
2018-03-06T01:49:22.941Z,2.10
2018-03-06T01:50:23.173Z,1.90
2018-03-06T01:51:23.405Z,2.00
2018-03-06T01:52:23.631Z,2.00
2018-03-06T01:53:23.866Z,2.10
2018-03-06T01:54:24.102Z,2.00
2018-03-06T01:55:24.355Z,2.00
2018-03-06T01:56:24.600Z,2.10
2018-03-06T01:57:24.828Z,2.10
2018-03-06T01:58:25.084Z,1.90
2018-03-06T01:59:25.287Z,1.90
2018-03-06T02:00:25.517Z,2.10
2018-03-06T02:01:25.749Z,1.90
2018-03-06T02:02:25.978Z,2.00
2018-03-06T02:03:26.209Z,2.10
2018-03-06T02:04:26.445Z,1.90
2018-03-06T02:05:26.675Z,1.90
2018-03-06T02:06:26.902Z,2.00
2018-03-06T02:07:27.135Z,2.00
2018-03-06T02:08:27.366Z,2.10
2018-03-06T02:09:27.603Z,2.10
2018-03-06T02:10:27.830Z,2.10
2018-03-06T02:11:28.064Z,2.10
2018-03-06T02:12:28.284Z,2.10
2018-03-06T02:13:28.516Z,1.70
2018-03-06T02:14:28.746Z,2.00
2018-03-06T02:15:28.979Z,2.00
2018-03-06T02:16:29.208Z,2.00
2018-03-06T02:17:29.437Z,1.90
2018-03-06T02:18:29.668Z,1.90
2018-03-06T02:19:29.902Z,2.00
2018-03-06T02:20:30.135Z,2.30
2018-03-06T02:21:30.367Z,2.00
2018-03-06T02:22:30.596Z,2.30
2018-03-06T02:23:30.829Z,2.00
2018-03-06T02:24:31.059Z,2.00
2018-03-06T02:25:31.296Z,1.80
2018-03-06T02:26:31.528Z,2.00
2018-03-06T02:27:31.760Z,2.00
2018-03-06T02:28:31.990Z,2.10
2018-03-06T02:29:32.224Z,2.00
2018-03-06T02:30:32.460Z,2.10
2018-03-06T02:31:32.685Z,2.20
2018-03-06T02:32:32.917Z,1.90
2018-03-06T02:33:33.142Z,2.00
2018-03-06T02:34:33.374Z,2.00
2018-03-06T02:35:33.604Z,2.10
2018-03-06T02:36:33.832Z,2.10
2018-03-06T02:37:34.066Z,1.90
2018-03-06T02:38:34.292Z,2.10
2018-03-06T02:39:34.528Z,2.20
2018-03-06T02:40:34.758Z,2.10
2018-03-06T02:41:34.991Z,2.20
2018-03-06T02:42:35.222Z,2.20
2018-03-06T02:43:35.451Z,1.90
2018-03-06T02:44:35.683Z,2.10
2018-03-06T02:45:35.914Z,2.10
2018-03-06T02:46:36.155Z,2.10
2018-03-06T02:47:36.382Z,2.00
2018-03-06T02:48:36.611Z,2.10
2018-03-06T02:49:36.842Z,2.00
2018-03-06T02:50:37.073Z,2.20
2018-03-06T02:51:37.310Z,2.10
2018-03-06T02:52:37.542Z,2.30
2018-03-06T02:53:37.771Z,1.90
2018-03-06T02:54:38.003Z,2.00
2018-03-06T02:55:38.234Z,2.10
2018-03-06T02:56:38.466Z,2.00
2018-03-06T02:57:38.699Z,2.00
2018-03-06T02:58:38.934Z,2.00
2018-03-06T02:59:39.155Z,2.00
2018-03-06T03:00:39.386Z,2.00
2018-03-06T03:01:39.617Z,2.10
2018-03-06T03:02:39.847Z,2.20
2018-03-06T03:03:40.078Z,2.30
2018-03-06T03:04:40.304Z,2.10
2018-03-06T03:05:40.539Z,2.20
2018-03-06T03:06:40.770Z,2.00
2018-03-06T03:07:41.008Z,2.00
2018-03-06T03:08:41.237Z,2.10
2018-03-06T03:09:41.466Z,2.40
2018-03-06T03:10:41.698Z,2.10
2018-03-06T03:11:41.929Z,2.20
2018-03-06T03:12:42.167Z,2.20
2018-03-06T03:13:42.396Z,2.10
2018-03-06T03:14:42.626Z,2.20
2018-03-06T03:15:42.858Z,2.10
2018-03-06T03:16:43.088Z,2.20
2018-03-06T03:17:43.323Z,2.20
2018-03-06T03:18:43.558Z,2.20
2018-03-06T03:19:43.786Z,2.10
2018-03-06T03:20:44.021Z,2.20
2018-03-06T03:21:44.252Z,2.00
2018-03-06T03:22:44.488Z,2.10
2018-03-06T03:23:44.721Z,2.10
2018-03-06T03:24:44.947Z,2.20
2018-03-06T03:25:45.178Z,2.30
2018-03-06T03:26:45.411Z,2.10
2018-03-06T03:27:45.635Z,2.10
2018-03-06T03:28:45.867Z,2.40
2018-03-06T03:29:46.098Z,2.10
2018-03-06T03:30:46.325Z,2.20
2018-03-06T03:31:46.557Z,2.40
2018-03-06T03:32:46.788Z,2.10
2018-03-06T03:33:47.022Z,2.20
2018-03-06T03:34:47.257Z,2.30
2018-03-06T03:35:47.480Z,2.20
2018-03-06T03:36:47.716Z,2.20
2018-03-06T03:37:47.946Z,2.20
2018-03-06T03:38:48.183Z,2.20
2018-03-06T03:39:48.414Z,2.30
2018-03-06T03:40:48.641Z,2.10
2018-03-06T03:41:48.873Z,2.10
2018-03-06T03:42:49.104Z,2.20
2018-03-06T03:43:49.341Z,2.30
2018-03-06T03:44:49.572Z,2.30
2018-03-06T03:45:49.801Z,2.10
2018-03-06T03:46:50.033Z,2.40
2018-03-06T03:47:50.263Z,2.20
2018-03-06T03:48:50.501Z,2.30
2018-03-06T03:49:50.734Z,2.30
2018-03-06T03:50:50.964Z,2.10
2018-03-06T03:51:51.190Z,2.30
2018-03-06T03:52:51.421Z,2.20
2018-03-06T03:53:51.651Z,2.50
2018-03-06T03:54:51.882Z,2.10
2018-03-06T03:55:52.113Z,2.30
2018-03-06T03:56:52.339Z,2.40
2018-03-06T03:57:52.573Z,2.30
2018-03-06T03:58:52.801Z,2.30
2018-03-06T03:59:53.037Z,2.60
2018-03-06T04:00:53.271Z,2.00
2018-03-06T04:01:53.495Z,2.20
2018-03-06T04:02:53.731Z,2.10
2018-03-06T04:03:53.960Z,2.20
2018-03-06T04:04:54.198Z,2.10
2018-03-06T04:05:54.430Z,2.20
2018-03-06T04:06:54.658Z,2.30
2018-03-06T04:07:54.893Z,2.30
2018-03-06T04:08:55.122Z,2.20
2018-03-06T04:09:55.359Z,2.20
2018-03-06T04:10:55.590Z,2.10
2018-03-06T04:11:55.816Z,2.40
2018-03-06T04:12:56.055Z,2.50
2018-03-06T04:13:56.279Z,2.40
2018-03-06T04:14:56.518Z,2.40
2018-03-06T04:15:56.749Z,2.50
2018-03-06T04:16:56.997Z,2.20
2018-03-06T04:17:57.209Z,2.60
2018-03-06T04:18:57.438Z,2.20
2018-03-06T04:19:57.678Z,2.40
2018-03-06T04:20:57.908Z,2.00
2018-03-06T04:21:58.137Z,2.20
2018-03-06T04:22:58.370Z,2.20
2018-03-06T04:23:58.598Z,2.40
2018-03-06T04:24:58.839Z,2.20
2018-03-06T04:25:59.070Z,2.20
2018-03-06T04:26:59.299Z,2.20
2018-03-06T04:27:59.529Z,2.30
2018-03-06T04:28:59.758Z,2.30
2018-03-06T04:30:00.000Z,2.40
2018-03-06T04:31:00.229Z,2.10
2018-03-06T04:32:00.459Z,2.30
2018-03-06T04:33:00.691Z,2.30
2018-03-06T04:34:00.918Z,2.20
2018-03-06T04:35:01.160Z,2.20
2018-03-06T04:36:01.391Z,2.30
2018-03-06T04:37:01.624Z,2.20
2018-03-06T04:38:01.853Z,2.30
2018-03-06T04:39:02.083Z,2.30
2018-03-06T04:40:02.321Z,2.40
2018-03-06T04:41:02.553Z,2.30
2018-03-06T04:42:02.781Z,2.30
2018-03-06T04:43:03.013Z,2.30
2018-03-06T04:44:03.244Z,2.20
2018-03-06T04:45:03.488Z,2.30
2018-03-06T04:46:03.711Z,2.40
2018-03-06T04:47:03.942Z,2.20
2018-03-06T04:48:04.174Z,2.30
2018-03-06T04:49:04.404Z,2.40
2018-03-06T04:50:04.642Z,2.30
2018-03-06T04:51:04.873Z,2.30
2018-03-06T04:52:05.102Z,2.30
2018-03-06T04:53:05.334Z,2.20
2018-03-06T04:54:05.564Z,2.30
2018-03-06T04:55:05.802Z,2.20
2018-03-06T04:56:06.034Z,2.40
2018-03-06T04:57:06.279Z,2.40
2018-03-06T04:58:06.508Z,2.50
2018-03-06T04:59:06.738Z,2.40
2018-03-06T05:00:06.970Z,2.50
2018-03-06T05:01:07.203Z,2.30
2018-03-06T05:02:07.428Z,2.20
2018-03-06T05:03:07.659Z,2.30
2018-03-06T05:04:07.892Z,2.50
2018-03-06T05:05:08.126Z,2.50
2018-03-06T05:06:08.357Z,2.30
2018-03-06T05:07:08.589Z,2.30
2018-03-06T05:08:08.818Z,2.50
2018-03-06T05:09:09.050Z,2.50
2018-03-06T05:10:09.289Z,2.50
2018-03-06T05:11:09.520Z,2.40
2018-03-06T05:12:09.748Z,2.30
2018-03-06T05:13:09.986Z,2.30
2018-03-06T05:14:10.212Z,2.50
2018-03-06T05:15:10.447Z,2.60
2018-03-06T05:16:10.678Z,2.70
2018-03-06T05:17:10.908Z,2.80
2018-03-06T05:18:11.138Z,2.50
2018-03-06T05:19:11.370Z,2.40
2018-03-06T05:20:11.606Z,2.60
2018-03-06T05:21:11.838Z,2.70
2018-03-06T05:22:12.066Z,2.50
2018-03-06T05:23:12.302Z,2.40
2018-03-06T05:24:12.527Z,2.50
2018-03-06T05:25:12.767Z,2.60
2018-03-06T05:26:12.998Z,2.60
2018-03-06T05:27:13.227Z,2.30
2018-03-06T05:28:13.456Z,2.60
2018-03-06T05:29:13.690Z,2.80
2018-03-06T05:30:13.932Z,2.70
2018-03-06T05:31:14.158Z,2.60
2018-03-06T05:32:14.388Z,2.70
2018-03-06T05:33:14.619Z,2.70
2018-03-06T05:34:14.850Z,2.70
2018-03-06T05:35:15.088Z,2.70
2018-03-06T05:36:15.322Z,2.50
2018-03-06T05:37:15.548Z,2.70
2018-03-06T05:38:15.778Z,2.60
2018-03-06T05:39:16.009Z,2.40
2018-03-06T05:40:16.240Z,2.40
2018-03-06T05:41:16.472Z,2.60
2018-03-06T05:42:16.708Z,2.70
2018-03-06T05:43:16.931Z,2.60
2018-03-06T05:44:17.159Z,2.60
2018-03-06T05:45:17.391Z,2.50
2018-03-06T05:46:17.623Z,2.70
2018-03-06T05:47:17.854Z,2.70
2018-03-06T05:48:18.082Z,2.40
2018-03-06T05:49:18.315Z,2.80
2018-03-06T05:50:18.546Z,2.70
2018-03-06T05:51:18.782Z,2.70
2018-03-06T05:52:19.013Z,2.80
2018-03-06T05:53:19.245Z,2.70
2018-03-06T05:54:19.473Z,2.60
2018-03-06T05:55:19.707Z,2.50
2018-03-06T05:56:19.945Z,2.60
2018-03-06T05:57:20.174Z,2.50
2018-03-06T05:58:20.402Z,2.60
2018-03-06T05:59:20.635Z,2.40
2018-03-06T06:00:20.868Z,2.60
2018-03-06T06:01:21.094Z,2.80
2018-03-06T06:02:21.320Z,2.60
2018-03-06T06:03:21.554Z,2.60
2018-03-06T06:04:21.781Z,2.60
2018-03-06T06:05:22.009Z,2.60
2018-03-06T06:06:22.290Z,2.90
2018-03-06T06:07:22.477Z,2.60
2018-03-06T06:08:22.707Z,2.70
2018-03-06T06:09:22.942Z,2.70
2018-03-06T06:10:23.156Z,2.80
2018-03-06T06:11:23.394Z,2.70
2018-03-06T06:12:23.625Z,2.60
2018-03-06T06:13:23.855Z,2.60
2018-03-06T06:14:24.086Z,2.70
2018-03-06T06:15:24.316Z,2.70
2018-03-06T06:16:24.543Z,2.70
2018-03-06T06:17:24.775Z,2.50
2018-03-06T06:18:25.012Z,2.90
2018-03-06T06:19:25.239Z,2.90
2018-03-06T06:20:25.467Z,2.50
2018-03-06T06:21:25.682Z,2.80
2018-03-06T06:22:25.917Z,3.00
2018-03-06T06:23:26.147Z,2.90
2018-03-06T06:24:26.408Z,2.90
2018-03-06T06:25:26.617Z,2.90
2018-03-06T06:26:26.846Z,2.50
2018-03-06T06:27:27.071Z,2.70
2018-03-06T06:28:27.301Z,3.20
2018-03-06T06:29:27.540Z,3.00
2018-03-06T06:30:27.768Z,2.70
2018-03-06T06:31:28.007Z,2.80
2018-03-06T06:32:28.253Z,2.70
2018-03-06T06:33:28.448Z,2.80
2018-03-06T06:34:28.680Z,2.80
2018-03-06T06:35:28.916Z,2.80
2018-03-06T06:36:29.147Z,3.00
2018-03-06T06:37:29.376Z,2.80
2018-03-06T06:38:29.603Z,2.70
2018-03-06T06:39:29.834Z,2.70
2018-03-06T06:40:30.065Z,2.90
2018-03-06T06:41:30.303Z,2.80
2018-03-06T06:42:30.510Z,3.00
2018-03-06T06:43:30.747Z,3.00
2018-03-06T06:44:30.966Z,3.00
2018-03-06T06:45:31.200Z,3.00
2018-03-06T06:46:31.431Z,2.80
2018-03-06T06:47:31.663Z,2.80
2018-03-06T06:48:31.894Z,3.10
2018-03-06T06:49:32.122Z,3.10
2018-03-06T06:50:32.334Z,2.80
2018-03-06T06:51:32.570Z,2.90
2018-03-06T06:52:32.801Z,2.80
2018-03-06T06:53:33.037Z,3.00
2018-03-06T06:54:33.271Z,2.90
2018-03-06T06:55:33.496Z,2.80
2018-03-06T06:56:33.726Z,3.10
2018-03-06T06:57:33.969Z,2.90
2018-03-06T06:58:34.193Z,3.00
2018-03-06T06:59:34.465Z,3.00
2018-03-06T07:00:34.718Z,3.20
2018-03-06T07:01:34.965Z,3.00
2018-03-06T07:02:35.173Z,2.90
2018-03-06T07:03:35.392Z,2.80
2018-03-06T07:04:35.627Z,3.10
2018-03-06T07:05:35.864Z,2.80
2018-03-06T07:06:36.099Z,3.10
2018-03-06T07:07:36.323Z,3.10
2018-03-06T07:08:36.554Z,2.90
2018-03-06T07:09:36.787Z,3.10
2018-03-06T07:10:37.020Z,3.00
2018-03-06T07:11:37.255Z,3.10
2018-03-06T07:12:37.490Z,2.90
2018-03-06T07:13:37.714Z,2.90
2018-03-06T07:14:37.938Z,2.80
2018-03-06T07:15:38.170Z,2.80
2018-03-06T07:16:38.404Z,2.70
2018-03-06T07:17:38.635Z,3.00
2018-03-06T07:18:38.871Z,2.80
2018-03-06T07:19:39.093Z,2.90
2018-03-06T07:20:39.315Z,3.00
2018-03-06T07:21:39.627Z,2.90
2018-03-06T07:22:39.862Z,2.90
2018-03-06T07:23:40.073Z,2.80
2018-03-06T07:24:40.288Z,2.70
2018-03-06T07:25:40.523Z,2.90
2018-03-06T07:26:40.743Z,3.30
2018-03-06T07:27:40.980Z,3.00
2018-03-06T07:28:41.219Z,2.80
2018-03-06T07:29:41.451Z,3.00
2018-03-06T07:30:41.663Z,3.30
2018-03-06T07:31:41.895Z,3.20
2018-03-06T07:32:42.122Z,3.00
2018-03-06T07:33:42.354Z,3.00
2018-03-06T07:34:42.579Z,3.10
2018-03-06T07:35:42.811Z,2.90
2018-03-06T07:36:43.040Z,2.80
2018-03-06T07:37:43.272Z,2.90
2018-03-06T07:38:43.502Z,3.10
2018-03-06T07:39:43.734Z,3.00
2018-03-06T07:40:43.964Z,2.80
2018-03-06T07:41:44.192Z,3.10
2018-03-06T07:42:44.444Z,2.90
2018-03-06T07:43:44.683Z,2.90
2018-03-06T07:44:44.912Z,3.00
2018-03-06T07:45:45.176Z,3.10
2018-03-06T07:46:45.326Z,3.10
2018-03-06T07:47:45.564Z,3.10
2018-03-06T07:48:45.807Z,3.10
2018-03-06T07:49:46.038Z,3.10
2018-03-06T07:50:46.398Z,2.90
2018-03-06T07:51:46.491Z,3.10
2018-03-06T07:52:46.721Z,3.20
2018-03-06T07:53:46.964Z,3.10
2018-03-06T07:54:47.194Z,3.20
2018-03-06T07:55:47.428Z,2.90
2018-03-06T07:56:47.659Z,3.40
2018-03-06T07:57:47.896Z,2.90
2018-03-06T07:58:48.122Z,3.20
2018-03-06T07:59:48.352Z,3.10
2018-03-06T08:00:48.582Z,3.30
2018-03-06T08:01:48.810Z,2.90
2018-03-06T08:02:49.040Z,3.00
2018-03-06T08:03:49.306Z,3.40
2018-03-06T08:04:49.519Z,3.00
2018-03-06T08:05:49.748Z,3.00
2018-03-06T08:06:49.961Z,3.10
2018-03-06T08:07:50.203Z,3.30
2018-03-06T08:08:50.431Z,3.40
2018-03-06T08:09:50.661Z,3.20
2018-03-06T08:10:50.907Z,3.00
2018-03-06T08:11:51.118Z,2.70
2018-03-06T08:12:51.352Z,3.50
2018-03-06T08:13:51.581Z,3.10
2018-03-06T08:14:51.816Z,3.10
2018-03-06T08:15:52.047Z,3.10
2018-03-06T08:16:52.279Z,3.60
2018-03-06T08:17:52.527Z,3.50
2018-03-06T08:18:52.735Z,3.20
2018-03-06T08:19:52.979Z,3.00
2018-03-06T08:20:53.223Z,3.00
2018-03-06T08:21:53.451Z,3.40
2018-03-06T08:22:53.682Z,3.40
2018-03-06T08:23:53.920Z,3.30
2018-03-06T08:24:54.155Z,3.10
2018-03-06T08:25:54.384Z,3.20
2018-03-06T08:26:54.619Z,3.20
2018-03-06T08:27:54.847Z,3.40
2018-03-06T08:28:55.085Z,3.20
2018-03-06T08:29:55.316Z,3.40
2018-03-06T08:30:55.545Z,3.80
2018-03-06T08:31:55.771Z,3.30
2018-03-06T08:32:55.995Z,3.20
2018-03-06T08:33:56.226Z,3.40
2018-03-06T08:34:56.458Z,3.40
2018-03-06T08:35:56.687Z,3.20
2018-03-06T08:36:56.917Z,3.40
2018-03-06T08:37:57.142Z,3.20
2018-03-06T08:38:57.394Z,3.60
2018-03-06T08:39:57.645Z,3.50
2018-03-06T08:40:57.869Z,3.20
2018-03-06T08:41:58.106Z,3.10
2018-03-06T08:42:58.335Z,3.30
2018-03-06T08:43:58.568Z,3.30
2018-03-06T08:44:58.800Z,3.30
2018-03-06T08:45:59.029Z,3.30
2018-03-06T08:46:59.256Z,3.50
2018-03-06T08:47:59.491Z,3.50
2018-03-06T08:48:59.727Z,3.40
2018-03-06T08:49:59.958Z,3.30
2018-03-06T08:51:00.188Z,3.40
2018-03-06T08:52:00.426Z,3.50
2018-03-06T08:53:00.650Z,3.30
2018-03-06T08:54:00.895Z,3.20
2018-03-06T08:55:01.127Z,3.30
2018-03-06T08:56:01.365Z,3.60
2018-03-06T08:57:01.576Z,3.30
2018-03-06T08:58:01.793Z,3.40
2018-03-06T09:00:33.600Z,3.50
2018-03-06T09:01:33.831Z,3.50
2018-03-06T09:02:34.060Z,3.50
2018-03-06T09:03:34.298Z,3.30
2018-03-06T09:04:34.520Z,3.70
2018-03-06T09:05:34.766Z,3.10
2018-03-06T09:06:34.995Z,3.30
2018-03-06T09:07:35.242Z,3.60
2018-03-06T09:08:35.473Z,3.40
2018-03-06T09:09:35.706Z,3.20
2018-03-06T09:10:35.934Z,3.60
2018-03-06T09:11:36.169Z,3.20
2018-03-06T09:12:36.396Z,3.40
2018-03-06T09:13:36.626Z,3.50
2018-03-06T09:14:36.866Z,3.40
2018-03-06T09:15:37.121Z,3.20
2018-03-06T09:16:37.354Z,3.50
2018-03-06T09:17:37.589Z,3.50
2018-03-06T09:18:37.816Z,3.50
2018-03-06T09:19:38.045Z,3.30
2018-03-06T09:20:38.293Z,3.40
2018-03-06T09:21:38.505Z,3.00
2018-03-06T09:22:38.735Z,3.60
2018-03-06T09:23:38.981Z,3.20
2018-03-06T09:24:39.211Z,3.50
2018-03-06T09:25:39.452Z,3.40
2018-03-06T09:26:39.692Z,3.30
2018-03-06T09:27:39.912Z,3.30
2018-03-06T09:28:40.145Z,3.30
2018-03-06T09:29:40.376Z,3.40
2018-03-06T09:30:40.606Z,3.50
2018-03-06T09:31:40.824Z,3.30
2018-03-06T09:32:41.055Z,3.20
2018-03-06T09:33:41.307Z,3.30
2018-03-06T09:34:41.537Z,3.60
2018-03-06T09:35:41.758Z,3.60
2018-03-06T09:36:41.985Z,3.60
2018-03-06T09:37:42.218Z,3.50
2018-03-06T09:38:42.446Z,3.30
2018-03-06T09:39:42.684Z,3.50
2018-03-06T09:40:42.919Z,3.60
2018-03-06T09:41:43.140Z,3.60
2018-03-06T09:42:43.367Z,3.60
2018-03-06T09:43:43.602Z,3.30
2018-03-06T09:44:43.836Z,3.60
2018-03-06T09:45:44.066Z,3.30
2018-03-06T09:46:44.299Z,3.80
2018-03-06T09:47:44.529Z,3.30
2018-03-06T09:48:44.758Z,3.90
2018-03-06T09:49:45.010Z,3.60
2018-03-06T09:50:45.247Z,3.60
2018-03-06T09:51:45.467Z,3.30
2018-03-06T09:52:45.701Z,3.40
2018-03-06T09:53:45.927Z,3.70
2018-03-06T09:54:46.158Z,3.70
2018-03-06T09:55:46.393Z,3.30
2018-03-06T09:56:46.618Z,3.80
2018-03-06T09:57:46.845Z,3.40
2018-03-06T09:58:47.118Z,3.20
2018-03-06T09:59:47.361Z,3.50
2018-03-06T10:00:47.595Z,3.40
2018-03-06T10:01:47.795Z,3.30
2018-03-06T10:02:48.024Z,3.40
2018-03-06T10:03:48.260Z,3.50
2018-03-06T10:04:48.492Z,3.60
2018-03-06T10:05:48.726Z,3.80
2018-03-06T10:06:48.947Z,3.40
2018-03-06T10:07:49.184Z,3.40
2018-03-06T10:08:49.405Z,3.40
2018-03-06T10:09:49.636Z,3.30
2018-03-06T10:10:49.864Z,3.40
2018-03-06T10:11:50.094Z,3.50
2018-03-06T10:12:50.328Z,3.40
2018-03-06T10:13:50.543Z,3.70
2018-03-06T10:14:50.773Z,3.60
2018-03-06T10:15:51.019Z,3.60
2018-03-06T10:16:51.254Z,3.60
2018-03-06T10:17:51.476Z,3.60
2018-03-06T10:18:51.706Z,3.50
2018-03-06T10:19:51.936Z,3.50
2018-03-06T10:20:52.179Z,3.60
2018-03-06T10:21:52.415Z,3.60
2018-03-06T10:22:52.636Z,3.70
2018-03-06T10:23:52.872Z,3.60
2018-03-06T10:24:53.098Z,3.60
2018-03-06T10:25:53.328Z,3.60
2018-03-06T10:26:53.560Z,3.60
2018-03-06T10:27:53.789Z,3.80
2018-03-06T10:28:54.007Z,3.70
2018-03-06T10:29:54.234Z,3.60
2018-03-06T10:30:54.465Z,3.70
2018-03-06T10:31:54.701Z,3.40
2018-03-06T10:32:54.929Z,3.70
2018-03-06T10:33:55.172Z,3.70
2018-03-06T10:34:55.387Z,3.60
2018-03-06T10:35:55.618Z,3.70
2018-03-06T10:36:55.854Z,3.70
2018-03-06T10:37:56.077Z,3.60
2018-03-06T10:38:56.305Z,3.60
2018-03-06T10:39:56.542Z,3.50
2018-03-06T10:40:56.761Z,3.50
2018-03-06T10:41:56.983Z,3.60
2018-03-06T10:42:57.235Z,4.00
2018-03-06T10:43:57.469Z,3.60
2018-03-06T10:44:57.699Z,3.70
2018-03-06T10:45:57.928Z,3.60
2018-03-06T10:46:58.161Z,3.50
2018-03-06T10:47:58.396Z,4.20
2018-03-06T10:48:58.626Z,3.40
2018-03-06T10:49:58.861Z,3.50
2018-03-06T10:50:59.087Z,3.70
2018-03-06T10:51:59.316Z,3.70
2018-03-06T10:52:59.555Z,3.80
2018-03-06T10:53:59.793Z,3.70
2018-03-06T10:55:00.021Z,3.60
2018-03-06T10:56:00.236Z,3.90
2018-03-06T10:57:00.469Z,4.00
2018-03-06T10:58:00.723Z,4.10
2018-03-06T10:59:00.951Z,3.60
2018-03-06T11:00:01.581Z,3.70
2018-03-06T11:01:01.469Z,3.70
2018-03-06T11:02:01.692Z,3.80
2018-03-06T11:03:01.930Z,3.80
2018-03-06T11:04:02.131Z,3.50
2018-03-06T11:05:02.349Z,3.70
2018-03-06T11:06:02.592Z,3.70
2018-03-06T11:07:02.810Z,3.60
2018-03-06T11:08:03.041Z,4.20
2018-03-06T11:09:03.275Z,3.80
2018-03-06T11:10:03.512Z,3.60
2018-03-06T11:11:03.717Z,3.90
2018-03-06T11:12:03.955Z,3.80
2018-03-06T11:13:04.185Z,3.90
2018-03-06T11:14:04.415Z,4.10
2018-03-06T11:15:04.645Z,4.00
2018-03-06T11:16:04.873Z,3.80
2018-03-06T11:17:05.088Z,3.80
2018-03-06T11:18:05.338Z,3.50
2018-03-06T11:19:05.585Z,3.80
2018-03-06T11:20:05.816Z,3.80
2018-03-06T11:21:06.032Z,3.90
2018-03-06T11:22:06.256Z,3.90
2018-03-06T11:23:06.486Z,3.70
2018-03-06T11:24:06.717Z,4.00
2018-03-06T11:25:06.947Z,3.80
2018-03-06T11:26:07.178Z,4.00
2018-03-06T11:27:07.405Z,3.90
2018-03-06T11:28:07.632Z,4.10
2018-03-06T11:29:07.861Z,3.90
2018-03-06T11:30:08.102Z,4.20
2018-03-06T11:31:08.332Z,4.00
2018-03-06T11:32:08.615Z,4.10
2018-03-06T11:33:08.791Z,4.20
2018-03-06T11:34:09.021Z,3.70
2018-03-06T11:35:09.251Z,3.90
2018-03-06T11:36:09.481Z,4.10
2018-03-06T11:37:09.711Z,3.70
2018-03-06T11:38:09.940Z,3.90
2018-03-06T11:39:10.177Z,4.00
2018-03-06T11:40:10.410Z,4.00
2018-03-06T11:41:10.640Z,4.30
2018-03-06T11:42:10.870Z,4.00
2018-03-06T11:43:11.100Z,4.00
2018-03-06T11:44:11.330Z,4.20
2018-03-06T11:45:11.561Z,4.00
2018-03-06T11:46:11.797Z,4.00
2018-03-06T11:47:12.029Z,4.00
2018-03-06T11:48:12.260Z,4.00
2018-03-06T11:49:12.479Z,3.90
2018-03-06T11:50:12.691Z,4.30
2018-03-06T11:51:12.930Z,3.70
2018-03-06T11:52:13.154Z,4.00
2018-03-06T11:53:13.384Z,4.00
2018-03-06T11:54:13.614Z,3.80
2018-03-06T11:55:13.839Z,4.10
2018-03-06T11:56:14.063Z,4.10
2018-03-06T11:57:14.293Z,4.40
2018-03-06T11:58:14.522Z,4.20
2018-03-06T11:59:14.752Z,4.20
2018-03-06T12:00:15.005Z,4.40
2018-03-06T12:01:15.224Z,4.30
2018-03-06T12:02:15.451Z,4.10
2018-03-06T12:03:15.685Z,4.30
2018-03-06T12:04:15.926Z,4.10
2018-03-06T12:05:16.162Z,4.10
2018-03-06T12:06:16.382Z,4.10
2018-03-06T12:07:16.612Z,4.20
2018-03-06T12:08:16.853Z,4.30
2018-03-06T12:09:17.075Z,4.20
2018-03-06T12:10:17.308Z,4.20
2018-03-06T12:11:17.946Z,4.10
2018-03-06T12:12:17.771Z,3.80
2018-03-06T12:13:18.344Z,4.20
2018-03-06T12:14:18.237Z,4.20
2018-03-06T12:15:18.466Z,4.10
2018-03-06T12:16:18.746Z,4.40
2018-03-06T12:17:18.926Z,4.20
2018-03-06T12:18:19.145Z,4.10
2018-03-06T12:19:19.382Z,4.20
2018-03-06T12:20:19.617Z,4.40
2018-03-06T12:21:19.855Z,4.40
2018-03-06T12:22:20.075Z,4.50
2018-03-06T12:23:20.307Z,4.10
2018-03-06T12:24:20.536Z,4.20
2018-03-06T12:25:20.769Z,4.50
2018-03-06T12:26:20.999Z,4.30
2018-03-06T12:27:21.231Z,4.20
2018-03-06T12:28:21.446Z,4.10
2018-03-06T12:29:21.680Z,4.10
2018-03-06T12:30:21.911Z,4.30
2018-03-06T12:31:22.144Z,4.40
2018-03-06T12:32:22.373Z,4.40
2018-03-06T12:33:22.601Z,4.30
2018-03-06T12:34:22.826Z,4.10
2018-03-06T12:35:23.055Z,4.40
2018-03-06T12:36:23.287Z,4.50
2018-03-06T12:37:23.525Z,4.60
2018-03-06T12:38:23.760Z,4.20
2018-03-06T12:39:23.982Z,4.50
2018-03-06T12:40:24.207Z,4.10
2018-03-06T12:41:24.437Z,4.20
2018-03-06T12:42:24.682Z,4.30
2018-03-06T12:43:24.909Z,4.40
2018-03-06T12:44:25.147Z,4.20
2018-03-06T12:45:25.374Z,4.60
2018-03-06T12:46:25.605Z,4.40
2018-03-06T12:47:25.840Z,4.30
2018-03-06T12:48:26.069Z,4.40
2018-03-06T12:49:26.295Z,4.40
2018-03-06T12:50:26.521Z,4.20
2018-03-06T12:51:26.741Z,4.50
2018-03-06T12:52:26.971Z,4.20
2018-03-06T12:53:27.216Z,4.60
2018-03-06T12:54:27.455Z,4.30
2018-03-06T12:55:27.673Z,4.50
2018-03-06T12:56:27.912Z,4.40
2018-03-06T12:57:28.135Z,4.50
2018-03-06T12:58:28.373Z,4.90
2018-03-06T12:59:28.654Z,4.40
2018-03-06T13:00:28.919Z,4.60
2018-03-06T13:01:29.143Z,4.20
2018-03-06T13:02:29.364Z,4.30
2018-03-06T13:03:29.603Z,4.40
2018-03-06T13:04:29.822Z,4.60
2018-03-06T13:05:30.066Z,4.30
2018-03-06T13:06:30.296Z,4.60
2018-03-06T13:07:30.522Z,4.20
2018-03-06T13:08:30.753Z,4.30
2018-03-06T13:09:30.984Z,4.90
2018-03-06T13:10:31.221Z,4.60
2018-03-06T13:11:31.456Z,4.70
2018-03-06T13:12:31.677Z,4.70
2018-03-06T13:13:31.897Z,4.50
2018-03-06T13:14:32.131Z,5.00
2018-03-06T13:15:32.362Z,4.80
2018-03-06T13:16:32.594Z,4.50
2018-03-06T13:17:32.835Z,4.70
2018-03-06T13:18:33.054Z,4.60
2018-03-06T13:19:33.290Z,4.30
2018-03-06T13:20:33.536Z,4.60
2018-03-06T13:21:33.750Z,4.80
2018-03-06T13:22:33.982Z,4.70
2018-03-06T13:23:34.208Z,5.00